createdAt,value
2022-07-26T00:03:22.513Z,100356.12
2022-07-26T00:08:28.833Z,100351.19
2022-07-26T00:13:34.729Z,100337.91
2022-07-26T00:18:40.553Z,100319.55
2022-07-26T00:23:46.386Z,100333.47
2022-07-26T00:28:51.867Z,100318.35
2022-07-26T00:33:57.332Z,100324.48
2022-07-26T00:39:03.174Z,100320.73
2022-07-26T00:44:08.703Z,100322.57
2022-07-26T00:49:14.590Z,100328.00
2022-07-26T00:54:20.250Z,100331.21
2022-07-26T00:59:25.726Z,100335.89
2022-07-26T01:04:32.098Z,100333.98
2022-07-26T01:09:38.198Z,100354.52
2022-07-26T01:14:47.003Z,100362.66
2022-07-26T01:19:52.457Z,100338.31
2022-07-26T01:24:57.968Z,100344.95
2022-07-26T01:30:03.422Z,100355.78
2022-07-26T01:35:09.262Z,100359.36
2022-07-26T01:40:15.562Z,100360.34
2022-07-26T01:45:21.243Z,100364.28
2022-07-26T01:50:26.821Z,100359.86
2022-07-26T01:55:32.565Z,100350.86
2022-07-26T02:00:38.356Z,100338.09
2022-07-26T02:05:43.896Z,100341.67
2022-07-26T02:11:03.667Z,100350.33
2022-07-26T02:16:11.797Z,100351.50
2022-07-26T02:21:17.308Z,100356.77
2022-07-26T02:26:23.337Z,100348.75
2022-07-26T02:31:32.382Z,100367.73
2022-07-26T02:36:36.169Z,100370.98
2022-07-26T02:41:42.065Z,100367.38
2022-07-26T02:46:47.609Z,100365.52
2022-07-26T02:51:53.277Z,100372.81
2022-07-26T02:56:58.821Z,100373.36
2022-07-26T03:02:04.391Z,100376.35
2022-07-26T03:07:09.922Z,100386.05
2022-07-26T03:12:15.345Z,100386.20
2022-07-26T03:17:21.024Z,100388.19
2022-07-26T03:22:26.458Z,100384.39
2022-07-26T03:27:31.956Z,100384.38
2022-07-26T03:32:37.413Z,100385.55
2022-07-26T03:37:45.640Z,100389.47
2022-07-26T03:42:50.283Z,100380.13
2022-07-26T03:47:55.793Z,100373.68
2022-07-26T03:53:01.221Z,100380.63
2022-07-26T03:58:06.715Z,100381.98
2022-07-26T04:03:12.159Z,100382.33
2022-07-26T04:08:18.240Z,100387.27
2022-07-26T04:13:24.200Z,100387.14
2022-07-26T04:18:29.636Z,100388.84
2022-07-26T04:23:35.075Z,100389.58
2022-07-26T04:28:41.172Z,100393.84
2022-07-26T04:33:46.916Z,100389.47
2022-07-26T04:38:52.338Z,100384.57
2022-07-26T04:43:58.205Z,100389.30
2022-07-26T04:49:03.721Z,100377.40
2022-07-26T04:54:09.732Z,100384.06
2022-07-26T04:59:19.834Z,100386.30
2022-07-26T05:04:22.846Z,100376.70
2022-07-26T05:09:28.355Z,100379.25
2022-07-26T05:14:33.869Z,100383.17
2022-07-26T05:19:39.545Z,100386.93
2022-07-26T05:24:45.130Z,100394.26
2022-07-26T05:29:50.565Z,100393.43
2022-07-26T05:34:56.200Z,100395.69
2022-07-26T05:40:01.639Z,100404.99
2022-07-26T05:45:08.124Z,100401.27
2022-07-26T05:50:13.699Z,100414.36
2022-07-26T05:55:19.150Z,100419.13
2022-07-26T06:00:24.594Z,100419.85
2022-07-26T06:05:30.083Z,100422.16
2022-07-26T06:10:35.602Z,100423.35
2022-07-26T06:15:42.387Z,100427.83
2022-07-26T06:20:48.956Z,100426.13
2022-07-26T06:25:54.386Z,100440.97
2022-07-26T06:30:59.925Z,100436.34
2022-07-26T06:36:06.123Z,100442.14
2022-07-26T06:41:11.562Z,100445.91
2022-07-26T06:46:17.237Z,100441.47
2022-07-26T06:51:23.662Z,100444.36
2022-07-26T06:56:29.100Z,100434.47
2022-07-26T07:01:57.032Z,100457.16
2022-07-26T07:06:41.745Z,100458.16
2022-07-26T07:11:49.066Z,100456.08
2022-07-26T07:16:56.760Z,100455.91
2022-07-26T07:22:02.312Z,100460.68
2022-07-26T07:27:07.823Z,100462.21
2022-07-26T07:32:18.153Z,100465.14
2022-07-26T07:37:21.799Z,100466.30
2022-07-26T07:42:27.357Z,100470.89
2022-07-26T07:47:34.917Z,100470.73
2022-07-26T07:52:41.070Z,100471.88
2022-07-26T07:57:46.556Z,100474.25
2022-07-26T08:02:52.339Z,100471.07
2022-07-26T08:07:57.852Z,100482.15
2022-07-26T08:13:03.423Z,100474.82
2022-07-26T08:18:08.941Z,100483.69
2022-07-26T08:23:16.311Z,100488.75
2022-07-26T08:28:45.021Z,100496.89
2022-07-26T08:33:29.166Z,100497.70
2022-07-26T08:38:34.678Z,100492.59
2022-07-26T08:43:51.212Z,100506.59
2022-07-26T08:48:47.419Z,100509.64
2022-07-26T08:54:04.906Z,100515.27
2022-07-26T08:59:20.599Z,100522.53
2022-07-26T09:04:34.542Z,100526.19
2022-07-26T09:09:42.503Z,100522.88
2022-07-26T09:14:49.250Z,100511.42
2022-07-26T09:20:15.861Z,100502.45
2022-07-26T09:25:23.042Z,100518.55
2022-07-26T09:30:31.299Z,100531.08
2022-07-26T09:35:51.400Z,100534.52
2022-07-26T09:40:50.964Z,100537.11
2022-07-26T09:46:05.492Z,100535.31
2022-07-26T09:51:12.037Z,100528.34
2022-07-26T09:56:19.170Z,100538.00
2022-07-26T10:01:24.653Z,100531.38
2022-07-26T10:06:30.676Z,100533.17
2022-07-26T10:11:57.181Z,100537.84
2022-07-26T10:17:04.808Z,100534.66
2022-07-26T10:22:26.092Z,100530.70
2022-07-26T10:27:46.261Z,100544.45
2022-07-26T10:33:03.527Z,100547.62
2022-07-26T10:38:10.774Z,100547.46
2022-07-26T10:48:27.355Z,100542.52
2022-07-26T10:53:33.724Z,100550.36
2022-07-26T10:58:44.232Z,100553.98
2022-07-26T11:03:49.892Z,100554.08
2022-07-26T11:08:56.076Z,100568.34
2022-07-26T11:14:14.203Z,100579.89
2022-07-26T11:19:21.670Z,100586.59
2022-07-26T11:24:27.551Z,100578.83
2022-07-26T11:29:38.112Z,100581.53
2022-07-26T11:34:42.579Z,100582.21
2022-07-26T11:39:48.759Z,100581.26
2022-07-26T11:45:06.186Z,100578.69
2022-07-26T11:50:18.700Z,100569.31
2022-07-26T11:55:27.428Z,100574.78
2022-07-26T12:00:33.146Z,100566.98
2022-07-26T12:05:38.739Z,100576.56
2022-07-26T12:10:44.420Z,100584.12
2022-07-26T12:15:52.873Z,100592.26
2022-07-26T12:21:08.858Z,100599.73
2022-07-26T12:26:30.847Z,100599.14
2022-07-26T12:31:36.477Z,100604.09
2022-07-26T12:36:42.015Z,100609.33
2022-07-26T12:41:49.146Z,100602.78
2022-07-26T12:46:55.108Z,100604.84
2022-07-26T12:52:00.546Z,100608.52
2022-07-26T12:57:06.459Z,100612.92
2022-07-26T13:02:12.304Z,100641.52
2022-07-26T13:07:19.398Z,100645.47
2022-07-26T13:12:25.068Z,100665.18
2022-07-26T13:17:30.498Z,100671.02
2022-07-26T13:22:36.956Z,100678.20
2022-07-26T13:27:44.817Z,100693.36
2022-07-26T13:32:49.766Z,100689.23
2022-07-26T13:37:55.198Z,100694.51
2022-07-26T13:43:00.859Z,100703.37
2022-07-26T13:48:07.092Z,100702.28
2022-07-26T13:53:12.635Z,100709.30
2022-07-26T13:58:19.968Z,100712.97
2022-07-26T14:03:26.233Z,100711.19
2022-07-26T14:08:31.739Z,100711.67
2022-07-26T14:13:37.189Z,100716.13
2022-07-26T14:18:42.614Z,100723.27
2022-07-26T14:23:48.094Z,100731.98
2022-07-26T14:28:54.370Z,100730.78
2022-07-26T14:34:00.066Z,100725.39
2022-07-26T14:39:06.236Z,100730.49
2022-07-26T14:44:12.278Z,100724.69
2022-07-26T14:49:18.099Z,100729.31
2022-07-26T14:54:23.548Z,100730.00
2022-07-26T14:59:29.584Z,100734.48
2022-07-26T15:04:35.107Z,100739.05
2022-07-26T15:09:40.689Z,100739.23
2022-07-26T15:14:46.209Z,100741.11
2022-07-26T15:19:51.711Z,100742.16
2022-07-26T15:24:57.184Z,100733.92
2022-07-26T15:30:06.064Z,100735.34
2022-07-26T15:35:14.486Z,100739.06
2022-07-26T15:40:20.850Z,100736.16
2022-07-26T15:45:26.944Z,100739.59
2022-07-26T15:50:33.106Z,100749.45
2022-07-26T15:55:38.620Z,100728.69
2022-07-26T16:00:44.366Z,100733.61
2022-07-26T16:05:49.902Z,100749.13
2022-07-26T16:10:55.474Z,100738.74
2022-07-26T16:16:01.119Z,100744.88
2022-07-26T16:21:07.331Z,100735.83
2022-07-26T16:26:12.776Z,100731.75
2022-07-26T16:31:18.367Z,100734.14
2022-07-26T16:36:24.049Z,100742.84
2022-07-26T16:41:32.477Z,100741.80
2022-07-26T16:46:38.095Z,100745.74
2022-07-26T16:51:43.679Z,100750.79
2022-07-26T16:56:49.190Z,100738.70
2022-07-26T17:01:55.422Z,100741.55
2022-07-26T17:07:23.986Z,100752.94
2022-07-26T17:12:09.347Z,100751.47
2022-07-26T17:17:14.784Z,100745.53
2022-07-26T17:22:21.608Z,100750.44
2022-07-26T17:27:27.041Z,100765.33
2022-07-26T17:32:32.566Z,100771.99
2022-07-26T17:37:38.187Z,100776.44
2022-07-26T17:42:45.837Z,100779.41
2022-07-26T17:47:51.390Z,100784.30
2022-07-26T17:52:57.165Z,100777.09
2022-07-26T17:58:31.761Z,100771.32
2022-07-26T18:03:37.374Z,100766.84
2022-07-26T18:08:42.932Z,100776.95
2022-07-26T18:13:48.500Z,100777.13
2022-07-26T18:18:54.303Z,100783.08
2022-07-26T18:24:15.908Z,100788.35
2022-07-26T18:29:07.815Z,100786.50
2022-07-26T18:34:13.996Z,100785.32
2022-07-26T18:39:19.613Z,100795.57
2022-07-26T18:44:25.185Z,100799.83
2022-07-26T18:49:32.237Z,100800.58
2022-07-26T18:54:38.751Z,100808.21
2022-07-26T18:59:44.229Z,100821.31
2022-07-26T19:04:49.781Z,100825.21
2022-07-26T19:09:58.652Z,100840.34
2022-07-26T19:15:03.489Z,100836.31
2022-07-26T19:20:10.830Z,100838.38
2022-07-26T19:25:16.497Z,100849.60
2022-07-26T19:30:22.015Z,100850.89
2022-07-26T19:35:29.835Z,100854.88
2022-07-26T19:40:35.525Z,100857.17
2022-07-26T19:45:41.409Z,100861.06
2022-07-26T19:50:47.135Z,100865.30
2022-07-26T19:55:52.703Z,100866.26
2022-07-26T20:00:58.260Z,100880.72
2022-07-26T20:06:03.923Z,100878.45
2022-07-26T20:11:09.614Z,100880.27
2022-07-26T20:16:15.453Z,100884.50
2022-07-26T20:21:21.088Z,100899.44
2022-07-26T20:26:26.604Z,100899.72
2022-07-26T20:31:32.173Z,100903.30
2022-07-26T20:36:37.957Z,100910.07
2022-07-26T20:41:43.635Z,100914.00
2022-07-26T20:46:49.157Z,100910.14
2022-07-26T20:51:54.833Z,100919.69
2022-07-26T20:57:00.342Z,100916.97
2022-07-26T21:02:07.849Z,100919.83
2022-07-26T21:07:14.800Z,100921.00
2022-07-26T21:12:21.648Z,100925.13
2022-07-26T21:17:32.672Z,100925.63
2022-07-26T21:22:34.818Z,100918.84
2022-07-26T21:27:40.535Z,100928.98
2022-07-26T21:32:46.096Z,100933.53
2022-07-26T21:37:51.770Z,100934.84
2022-07-26T21:42:57.235Z,100939.73
2022-07-26T21:48:03.715Z,100949.53
2022-07-26T21:53:09.232Z,100950.57
2022-07-26T21:58:14.742Z,100961.89
2022-07-26T22:03:20.225Z,100955.28
2022-07-26T22:08:26.288Z,100960.47
2022-07-26T22:13:32.464Z,100955.62
2022-07-26T22:18:38.236Z,100957.17
2022-07-26T22:23:43.844Z,100958.13
2022-07-26T22:28:49.457Z,100966.52
2022-07-26T22:33:55.031Z,100964.26
2022-07-26T22:39:00.594Z,100966.26
2022-07-26T22:44:06.348Z,100966.93
2022-07-26T22:49:14.901Z,100966.97
2022-07-26T22:54:19.129Z,100967.53
2022-07-26T22:59:25.619Z,100960.64
2022-07-26T23:04:31.183Z,100958.55
2022-07-26T23:09:36.760Z,100959.34
2022-07-26T23:14:42.329Z,100972.16
2022-07-26T23:19:47.875Z,100974.80
2022-07-26T23:24:53.442Z,100967.95
2022-07-26T23:29:58.958Z,100962.55
2022-07-26T23:35:04.723Z,100959.24
2022-07-26T23:40:11.411Z,100961.70
2022-07-26T23:45:16.924Z,100969.44
2022-07-26T23:50:24.842Z,100965.27
2022-07-26T23:55:35.590Z,100974.72
